sensor_id;sensor_type;location;lat;lon;timestamp;temperature;humidity
7972;DHT22;4031;49.758;6.120;2022-10-16T00:01:30;12.70;99.90
7972;DHT22;4031;49.758;6.120;2022-10-16T00:03:58;12.70;99.90
7972;DHT22;4031;49.758;6.120;2022-10-16T00:06:25;12.70;99.90
7972;DHT22;4031;49.758;6.120;2022-10-16T00:08:52;12.70;99.90
7972;DHT22;4031;49.758;6.120;2022-10-16T00:11:26;12.70;99.90
7972;DHT22;4031;49.758;6.120;2022-10-16T00:13:59;12.80;99.90
7972;DHT22;4031;49.758;6.120;2022-10-16T00:16:26;12.80;99.90
7972;DHT22;4031;49.758;6.120;2022-10-16T00:18:52;12.80;99.90
7972;DHT22;4031;49.758;6.120;2022-10-16T00:21:21;12.80;99.90
7972;DHT22;4031;49.758;6.120;2022-10-16T00:23:54;12.80;99.90
7972;DHT22;4031;49.758;6.120;2022-10-16T00:26:22;12.80;99.90
7972;DHT22;4031;49.758;6.120;2022-10-16T00:28:49;12.90;99.90
7972;DHT22;4031;49.758;6.120;2022-10-16T00:31:17;13.00;99.90
7972;DHT22;4031;49.758;6.120;2022-10-16T00:33:44;12.90;99.90
7972;DHT22;4031;49.758;6.120;2022-10-16T00:36:13;13.00;99.90
7972;DHT22;4031;49.758;6.120;2022-10-16T00:38:42;13.00;99.90
7972;DHT22;4031;49.758;6.120;2022-10-16T00:41:12;13.00;99.90
7972;DHT22;4031;49.758;6.120;2022-10-16T00:43:46;13.00;99.90
7972;DHT22;4031;49.758;6.120;2022-10-16T00:46:49;13.00;99.90
7972;DHT22;4031;49.758;6.120;2022-10-16T00:49:17;13.00;99.90
7972;DHT22;4031;49.758;6.120;2022-10-16T00:51:46;13.00;99.90
7972;DHT22;4031;49.758;6.120;2022-10-16T00:54:25;13.00;99.90
7972;DHT22;4031;49.758;6.120;2022-10-16T00:56:55;13.00;99.90
7972;DHT22;4031;49.758;6.120;2022-10-16T00:59:25;13.00;99.90
7972;DHT22;4031;49.758;6.120;2022-10-16T01:01:54;13.00;99.90
7972;DHT22;4031;49.758;6.120;2022-10-16T01:04:20;13.00;99.90
7972;DHT22;4031;49.758;6.120;2022-10-16T01:12:59;13.00;99.90
7972;DHT22;4031;49.758;6.120;2022-10-16T01:19:41;13.00;99.90
7972;DHT22;4031;49.758;6.120;2022-10-16T01:21:53;13.00;99.90
7972;DHT22;4031;49.758;6.120;2022-10-16T01:24:35;13.00;99.90
7972;DHT22;4031;49.758;6.120;2022-10-16T01:27:12;13.00;99.90
7972;DHT22;4031;49.758;6.120;2022-10-16T01:30:09;13.10;99.90
7972;DHT22;4031;49.758;6.120;2022-10-16T01:32:45;13.20;99.90
7972;DHT22;4031;49.758;6.120;2022-10-16T01:35:30;13.20;99.90
7972;DHT22;4031;49.758;6.120;2022-10-16T01:38:08;13.20;99.90
7972;DHT22;4031;49.758;6.120;2022-10-16T01:40:42;13.20;99.90
7972;DHT22;4031;49.758;6.120;2022-10-16T01:43:17;13.20;99.90
7972;DHT22;4031;49.758;6.120;2022-10-16T01:45:45;13.20;99.90
7972;DHT22;4031;49.758;6.120;2022-10-16T01:48:14;13.20;99.90
7972;DHT22;4031;49.758;6.120;2022-10-16T01:50:44;13.20;99.90
7972;DHT22;4031;49.758;6.120;2022-10-16T01:53:22;13.20;99.90
7972;DHT22;4031;49.758;6.120;2022-10-16T01:55:50;13.20;99.90
7972;DHT22;4031;49.758;6.120;2022-10-16T01:58:18;13.20;99.90
7972;DHT22;4031;49.758;6.120;2022-10-16T02:00:45;13.10;99.90
7972;DHT22;4031;49.758;6.120;2022-10-16T02:03:13;13.20;99.90
7972;DHT22;4031;49.758;6.120;2022-10-16T02:05:45;13.10;99.90
7972;DHT22;4031;49.758;6.120;2022-10-16T02:08:12;13.10;99.90
7972;DHT22;4031;49.758;6.120;2022-10-16T02:10:39;13.10;99.90
7972;DHT22;4031;49.758;6.120;2022-10-16T02:13:39;13.00;99.90
7972;DHT22;4031;49.758;6.120;2022-10-16T02:16:08;13.00;99.90
7972;DHT22;4031;49.758;6.120;2022-10-16T02:18:34;12.90;99.90
7972;DHT22;4031;49.758;6.120;2022-10-16T02:23:59;12.90;99.90
7972;DHT22;4031;49.758;6.120;2022-10-16T02:26:44;12.90;99.90
7972;DHT22;4031;49.758;6.120;2022-10-16T02:29:17;12.90;99.90
7972;DHT22;4031;49.758;6.120;2022-10-16T02:31:49;12.90;99.90
7972;DHT22;4031;49.758;6.120;2022-10-16T02:34:18;12.90;99.90
7972;DHT22;4031;49.758;6.120;2022-10-16T02:36:45;12.90;99.90
7972;DHT22;4031;49.758;6.120;2022-10-16T02:39:11;12.90;99.90
7972;DHT22;4031;49.758;6.120;2022-10-16T02:41:38;13.00;99.90
7972;DHT22;4031;49.758;6.120;2022-10-16T02:44:03;13.00;99.90
7972;DHT22;4031;49.758;6.120;2022-10-16T02:46:29;13.00;99.90
7972;DHT22;4031;49.758;6.120;2022-10-16T02:48:55;13.00;99.90
7972;DHT22;4031;49.758;6.120;2022-10-16T02:51:20;13.00;99.90
7972;DHT22;4031;49.758;6.120;2022-10-16T02:53:46;13.00;99.90
7972;DHT22;4031;49.758;6.120;2022-10-16T02:56:12;13.00;99.90
7972;DHT22;4031;49.758;6.120;2022-10-16T02:58:38;13.00;99.90
7972;DHT22;4031;49.758;6.120;2022-10-16T03:01:03;12.90;99.90
7972;DHT22;4031;49.758;6.120;2022-10-16T03:03:29;13.00;99.90
7972;DHT22;4031;49.758;6.120;2022-10-16T03:05:55;13.00;99.90
7972;DHT22;4031;49.758;6.120;2022-10-16T03:08:21;13.00;99.90
7972;DHT22;4031;49.758;6.120;2022-10-16T03:10:49;13.00;99.90
7972;DHT22;4031;49.758;6.120;2022-10-16T03:13:15;13.00;99.90
7972;DHT22;4031;49.758;6.120;2022-10-16T03:15:41;13.00;99.90
7972;DHT22;4031;49.758;6.120;2022-10-16T03:18:07;13.00;99.90
7972;DHT22;4031;49.758;6.120;2022-10-16T03:20:33;13.00;99.90
7972;DHT22;4031;49.758;6.120;2022-10-16T03:22:59;13.00;99.90
7972;DHT22;4031;49.758;6.120;2022-10-16T03:25:24;13.00;99.90
7972;DHT22;4031;49.758;6.120;2022-10-16T03:27:50;13.00;99.90
7972;DHT22;4031;49.758;6.120;2022-10-16T03:30:16;13.00;99.90
7972;DHT22;4031;49.758;6.120;2022-10-16T03:32:43;13.00;99.90
7972;DHT22;4031;49.758;6.120;2022-10-16T03:35:09;13.00;99.90
7972;DHT22;4031;49.758;6.120;2022-10-16T03:37:35;13.00;99.90
7972;DHT22;4031;49.758;6.120;2022-10-16T03:40:02;13.00;99.90
7972;DHT22;4031;49.758;6.120;2022-10-16T03:42:28;13.00;99.90
7972;DHT22;4031;49.758;6.120;2022-10-16T03:44:54;12.90;99.90
7972;DHT22;4031;49.758;6.120;2022-10-16T03:47:20;12.90;99.90
7972;DHT22;4031;49.758;6.120;2022-10-16T03:49:47;13.00;99.90
7972;DHT22;4031;49.758;6.120;2022-10-16T03:52:13;13.00;99.90
7972;DHT22;4031;49.758;6.120;2022-10-16T03:54:39;12.90;99.90
7972;DHT22;4031;49.758;6.120;2022-10-16T03:57:05;12.90;99.90
7972;DHT22;4031;49.758;6.120;2022-10-16T03:59:31;12.90;99.90
7972;DHT22;4031;49.758;6.120;2022-10-16T04:01:56;12.90;99.90
7972;DHT22;4031;49.758;6.120;2022-10-16T04:04:22;12.90;99.90
7972;DHT22;4031;49.758;6.120;2022-10-16T04:06:48;12.90;99.90
7972;DHT22;4031;49.758;6.120;2022-10-16T04:09:13;12.90;99.90
7972;DHT22;4031;49.758;6.120;2022-10-16T04:11:39;12.90;99.90
7972;DHT22;4031;49.758;6.120;2022-10-16T04:14:05;12.90;99.90
7972;DHT22;4031;49.758;6.120;2022-10-16T04:16:31;12.90;99.90
7972;DHT22;4031;49.758;6.120;2022-10-16T04:18:56;12.90;99.90
7972;DHT22;4031;49.758;6.120;2022-10-16T04:21:22;12.90;99.90
7972;DHT22;4031;49.758;6.120;2022-10-16T04:23:48;13.00;99.90
7972;DHT22;4031;49.758;6.120;2022-10-16T04:26:14;12.90;99.90
7972;DHT22;4031;49.758;6.120;2022-10-16T04:28:40;12.80;99.90
7972;DHT22;4031;49.758;6.120;2022-10-16T04:31:06;12.80;99.90
7972;DHT22;4031;49.758;6.120;2022-10-16T04:33:33;12.80;99.90
7972;DHT22;4031;49.758;6.120;2022-10-16T04:36:00;12.80;99.90
7972;DHT22;4031;49.758;6.120;2022-10-16T04:38:26;12.80;99.90
7972;DHT22;4031;49.758;6.120;2022-10-16T04:40:52;12.90;99.90
7972;DHT22;4031;49.758;6.120;2022-10-16T04:43:18;12.90;99.90
7972;DHT22;4031;49.758;6.120;2022-10-16T04:45:44;12.90;99.90
7972;DHT22;4031;49.758;6.120;2022-10-16T04:48:10;12.90;99.90
7972;DHT22;4031;49.758;6.120;2022-10-16T04:50:36;12.90;99.90
7972;DHT22;4031;49.758;6.120;2022-10-16T04:53:02;12.90;99.90
7972;DHT22;4031;49.758;6.120;2022-10-16T04:55:27;12.80;99.90
7972;DHT22;4031;49.758;6.120;2022-10-16T04:57:53;12.80;99.90
7972;DHT22;4031;49.758;6.120;2022-10-16T05:00:19;12.80;99.90
7972;DHT22;4031;49.758;6.120;2022-10-16T05:02:45;12.80;99.90
7972;DHT22;4031;49.758;6.120;2022-10-16T05:05:10;12.80;99.90
7972;DHT22;4031;49.758;6.120;2022-10-16T05:07:37;12.80;99.90
7972;DHT22;4031;49.758;6.120;2022-10-16T05:10:03;12.80;99.90
7972;DHT22;4031;49.758;6.120;2022-10-16T05:12:29;12.90;99.90
7972;DHT22;4031;49.758;6.120;2022-10-16T05:14:55;12.90;99.90
7972;DHT22;4031;49.758;6.120;2022-10-16T05:17:24;12.90;99.90
7972;DHT22;4031;49.758;6.120;2022-10-16T05:19:51;12.90;99.90
7972;DHT22;4031;49.758;6.120;2022-10-16T05:22:17;12.90;99.90
7972;DHT22;4031;49.758;6.120;2022-10-16T05:24:43;12.90;99.90
7972;DHT22;4031;49.758;6.120;2022-10-16T05:27:09;12.90;99.90
7972;DHT22;4031;49.758;6.120;2022-10-16T05:29:35;12.90;99.90
7972;DHT22;4031;49.758;6.120;2022-10-16T05:32:01;12.90;99.90
7972;DHT22;4031;49.758;6.120;2022-10-16T05:34:26;13.00;99.90
7972;DHT22;4031;49.758;6.120;2022-10-16T05:36:52;12.90;99.90
7972;DHT22;4031;49.758;6.120;2022-10-16T05:39:18;12.90;99.90
7972;DHT22;4031;49.758;6.120;2022-10-16T05:41:44;12.90;99.90
7972;DHT22;4031;49.758;6.120;2022-10-16T05:44:10;12.90;99.90
7972;DHT22;4031;49.758;6.120;2022-10-16T05:46:36;12.90;99.90
7972;DHT22;4031;49.758;6.120;2022-10-16T05:49:02;12.90;99.90
7972;DHT22;4031;49.758;6.120;2022-10-16T05:51:28;13.00;99.90
7972;DHT22;4031;49.758;6.120;2022-10-16T05:53:53;13.00;99.90
7972;DHT22;4031;49.758;6.120;2022-10-16T05:56:19;13.00;99.90
7972;DHT22;4031;49.758;6.120;2022-10-16T05:58:45;13.00;99.90
7972;DHT22;4031;49.758;6.120;2022-10-16T06:01:17;13.00;99.90
7972;DHT22;4031;49.758;6.120;2022-10-16T06:03:44;13.00;99.90
7972;DHT22;4031;49.758;6.120;2022-10-16T06:06:21;13.00;99.90
7972;DHT22;4031;49.758;6.120;2022-10-16T06:08:49;13.00;99.90
7972;DHT22;4031;49.758;6.120;2022-10-16T06:11:21;13.00;99.90
7972;DHT22;4031;49.758;6.120;2022-10-16T06:13:50;13.10;99.90
7972;DHT22;4031;49.758;6.120;2022-10-16T06:16:17;13.00;99.90
7972;DHT22;4031;49.758;6.120;2022-10-16T06:18:43;13.00;99.90
7972;DHT22;4031;49.758;6.120;2022-10-16T06:21:12;13.00;99.90
7972;DHT22;4031;49.758;6.120;2022-10-16T06:23:40;13.00;99.90
7972;DHT22;4031;49.758;6.120;2022-10-16T06:26:07;13.00;99.90
7972;DHT22;4031;49.758;6.120;2022-10-16T06:28:34;13.10;99.90
7972;DHT22;4031;49.758;6.120;2022-10-16T06:31:01;13.10;99.90
7972;DHT22;4031;49.758;6.120;2022-10-16T06:33:28;13.10;99.90
7972;DHT22;4031;49.758;6.120;2022-10-16T06:35:53;13.20;99.90
7972;DHT22;4031;49.758;6.120;2022-10-16T06:38:24;13.20;99.90
7972;DHT22;4031;49.758;6.120;2022-10-16T06:40:50;13.30;99.90
7972;DHT22;4031;49.758;6.120;2022-10-16T06:43:16;13.20;99.90
7972;DHT22;4031;49.758;6.120;2022-10-16T06:45:42;13.30;99.90
7972;DHT22;4031;49.758;6.120;2022-10-16T06:48:07;13.30;99.90
7972;DHT22;4031;49.758;6.120;2022-10-16T06:50:33;13.30;99.90
7972;DHT22;4031;49.758;6.120;2022-10-16T06:52:59;13.30;99.90
7972;DHT22;4031;49.758;6.120;2022-10-16T06:55:25;13.30;99.90
7972;DHT22;4031;49.758;6.120;2022-10-16T06:57:50;13.40;99.90
7972;DHT22;4031;49.758;6.120;2022-10-16T07:00:16;13.40;99.90
7972;DHT22;4031;49.758;6.120;2022-10-16T07:02:42;13.50;99.90
7972;DHT22;4031;49.758;6.120;2022-10-16T07:05:08;13.60;99.90
7972;DHT22;4031;49.758;6.120;2022-10-16T07:07:33;13.60;99.90
7972;DHT22;4031;49.758;6.120;2022-10-16T07:09:59;13.60;99.90
7972;DHT22;4031;49.758;6.120;2022-10-16T07:12:25;13.60;99.90
7972;DHT22;4031;49.758;6.120;2022-10-16T07:14:50;13.60;99.90
7972;DHT22;4031;49.758;6.120;2022-10-16T07:17:17;13.60;99.90
7972;DHT22;4031;49.758;6.120;2022-10-16T07:19:44;13.60;99.90
7972;DHT22;4031;49.758;6.120;2022-10-16T07:22:10;13.70;99.90
7972;DHT22;4031;49.758;6.120;2022-10-16T07:24:35;13.80;99.90
7972;DHT22;4031;49.758;6.120;2022-10-16T07:27:01;13.70;99.90
7972;DHT22;4031;49.758;6.120;2022-10-16T07:29:27;13.70;99.90
7972;DHT22;4031;49.758;6.120;2022-10-16T07:31:53;13.80;99.90
7972;DHT22;4031;49.758;6.120;2022-10-16T07:34:19;13.80;99.90
7972;DHT22;4031;49.758;6.120;2022-10-16T07:36:50;13.80;99.90
7972;DHT22;4031;49.758;6.120;2022-10-16T07:39:17;13.90;99.90
7972;DHT22;4031;49.758;6.120;2022-10-16T07:41:43;14.00;99.90
7972;DHT22;4031;49.758;6.120;2022-10-16T07:44:08;14.10;99.90
7972;DHT22;4031;49.758;6.120;2022-10-16T07:46:35;14.10;99.90
7972;DHT22;4031;49.758;6.120;2022-10-16T07:49:02;14.20;99.90
7972;DHT22;4031;49.758;6.120;2022-10-16T07:51:28;14.20;99.90
7972;DHT22;4031;49.758;6.120;2022-10-16T07:53:54;14.20;99.90
7972;DHT22;4031;49.758;6.120;2022-10-16T07:56:21;14.30;99.90
7972;DHT22;4031;49.758;6.120;2022-10-16T07:58:47;14.30;99.90
7972;DHT22;4031;49.758;6.120;2022-10-16T08:01:16;14.40;99.90
7972;DHT22;4031;49.758;6.120;2022-10-16T08:03:44;14.40;99.90
7972;DHT22;4031;49.758;6.120;2022-10-16T08:06:10;14.50;99.90
7972;DHT22;4031;49.758;6.120;2022-10-16T08:08:36;14.60;99.90
7972;DHT22;4031;49.758;6.120;2022-10-16T08:11:01;14.60;99.90
7972;DHT22;4031;49.758;6.120;2022-10-16T08:13:29;14.70;99.90
7972;DHT22;4031;49.758;6.120;2022-10-16T08:15:56;14.90;99.90
7972;DHT22;4031;49.758;6.120;2022-10-16T08:18:22;15.00;99.90
7972;DHT22;4031;49.758;6.120;2022-10-16T08:20:48;15.00;99.90
7972;DHT22;4031;49.758;6.120;2022-10-16T08:23:14;15.00;99.90
7972;DHT22;4031;49.758;6.120;2022-10-16T08:25:40;15.10;99.90
7972;DHT22;4031;49.758;6.120;2022-10-16T08:28:08;15.20;99.90
7972;DHT22;4031;49.758;6.120;2022-10-16T08:30:35;15.20;99.90
7972;DHT22;4031;49.758;6.120;2022-10-16T08:33:01;15.30;99.90
7972;DHT22;4031;49.758;6.120;2022-10-16T08:35:28;15.50;99.90
7972;DHT22;4031;49.758;6.120;2022-10-16T08:37:54;15.60;99.90
7972;DHT22;4031;49.758;6.120;2022-10-16T08:40:23;15.60;99.90
7972;DHT22;4031;49.758;6.120;2022-10-16T08:48:57;15.70;99.90
7972;DHT22;4031;49.758;6.120;2022-10-16T08:51:27;15.80;99.90
7972;DHT22;4031;49.758;6.120;2022-10-16T08:54:22;16.00;99.90
7972;DHT22;4031;49.758;6.120;2022-10-16T08:57:09;16.60;99.90
7972;DHT22;4031;49.758;6.120;2022-10-16T08:59:36;16.90;99.90
7972;DHT22;4031;49.758;6.120;2022-10-16T09:02:44;16.90;99.90
7972;DHT22;4031;49.758;6.120;2022-10-16T09:11:44;16.50;99.90
7972;DHT22;4031;49.758;6.120;2022-10-16T09:17:43;17.20;99.90
7972;DHT22;4031;49.758;6.120;2022-10-16T09:20:23;17.30;99.90
7972;DHT22;4031;49.758;6.120;2022-10-16T09:25:29;17.60;99.90
7972;DHT22;4031;49.758;6.120;2022-10-16T09:27:55;17.80;99.90
7972;DHT22;4031;49.758;6.120;2022-10-16T09:30:22;17.90;99.90
7972;DHT22;4031;49.758;6.120;2022-10-16T09:32:52;17.80;99.90
7972;DHT22;4031;49.758;6.120;2022-10-16T09:35:42;17.80;99.90
7972;DHT22;4031;49.758;6.120;2022-10-16T09:38:21;17.80;99.90
7972;DHT22;4031;49.758;6.120;2022-10-16T09:40:47;17.70;99.90
7972;DHT22;4031;49.758;6.120;2022-10-16T09:45:58;17.50;99.90
7972;DHT22;4031;49.758;6.120;2022-10-16T09:48:43;17.40;99.90
7972;DHT22;4031;49.758;6.120;2022-10-16T09:54:15;17.40;99.90
7972;DHT22;4031;49.758;6.120;2022-10-16T09:56:41;17.50;99.90
7972;DHT22;4031;49.758;6.120;2022-10-16T09:59:18;17.70;99.90
7972;DHT22;4031;49.758;6.120;2022-10-16T10:01:48;18.80;99.90
7972;DHT22;4031;49.758;6.120;2022-10-16T10:04:16;21.30;99.90
7972;DHT22;4031;49.758;6.120;2022-10-16T10:06:48;22.90;99.90
7972;DHT22;4031;49.758;6.120;2022-10-16T10:12:00;23.80;99.90
7972;DHT22;4031;49.758;6.120;2022-10-16T10:14:37;24.30;99.90
7972;DHT22;4031;49.758;6.120;2022-10-16T10:19:48;24.70;99.90
7972;DHT22;4031;49.758;6.120;2022-10-16T10:27:53;24.90;99.90
7972;DHT22;4031;49.758;6.120;2022-10-16T10:39:25;22.20;99.90
7972;DHT22;4031;49.758;6.120;2022-10-16T10:42:25;22.00;99.90
7972;DHT22;4031;49.758;6.120;2022-10-16T10:47:59;21.40;99.90
7972;DHT22;4031;49.758;6.120;2022-10-16T10:50:45;21.40;99.90
7972;DHT22;4031;49.758;6.120;2022-10-16T10:57:00;20.80;99.90
7972;DHT22;4031;49.758;6.120;2022-10-16T10:59:53;20.40;99.90
7972;DHT22;4031;49.758;6.120;2022-10-16T11:02:42;20.10;99.90
7972;DHT22;4031;49.758;6.120;2022-10-16T11:06:00;19.70;99.90
7972;DHT22;4031;49.758;6.120;2022-10-16T11:08:53;19.40;99.90
7972;DHT22;4031;49.758;6.120;2022-10-16T11:11:29;19.10;99.90
7972;DHT22;4031;49.758;6.120;2022-10-16T11:16:56;18.90;99.90
7972;DHT22;4031;49.758;6.120;2022-10-16T11:25:04;18.80;99.90
7972;DHT22;4031;49.758;6.120;2022-10-16T11:27:38;18.70;99.90
7972;DHT22;4031;49.758;6.120;2022-10-16T11:30:13;18.60;99.90
7972;DHT22;4031;49.758;6.120;2022-10-16T11:33:00;18.60;99.90
7972;DHT22;4031;49.758;6.120;2022-10-16T11:35:49;18.60;99.90
7972;DHT22;4031;49.758;6.120;2022-10-16T11:50:48;19.40;99.90
7972;DHT22;4031;49.758;6.120;2022-10-16T11:56:04;20.00;99.90
7972;DHT22;4031;49.758;6.120;2022-10-16T11:58:38;20.30;99.90
7972;DHT22;4031;49.758;6.120;2022-10-16T12:01:38;20.30;99.90
7972;DHT22;4031;49.758;6.120;2022-10-16T12:07:04;19.80;99.90
7972;DHT22;4031;49.758;6.120;2022-10-16T12:09:36;19.80;99.90
7972;DHT22;4031;49.758;6.120;2022-10-16T12:12:04;19.80;99.90
7972;DHT22;4031;49.758;6.120;2022-10-16T12:14:36;20.00;99.90
7972;DHT22;4031;49.758;6.120;2022-10-16T12:17:22;20.00;99.90
7972;DHT22;4031;49.758;6.120;2022-10-16T12:22:42;19.70;99.90
7972;DHT22;4031;49.758;6.120;2022-10-16T12:25:40;19.40;99.90
7972;DHT22;4031;49.758;6.120;2022-10-16T12:30:42;19.10;99.90
7972;DHT22;4031;49.758;6.120;2022-10-16T12:35:55;18.90;99.90
7972;DHT22;4031;49.758;6.120;2022-10-16T12:38:28;18.80;99.90
7972;DHT22;4031;49.758;6.120;2022-10-16T12:41:04;18.70;99.90
7972;DHT22;4031;49.758;6.120;2022-10-16T12:43:45;18.70;99.90
7972;DHT22;4031;49.758;6.120;2022-10-16T12:48:40;18.80;99.90
7972;DHT22;4031;49.758;6.120;2022-10-16T12:54:20;19.00;99.90
7972;DHT22;4031;49.758;6.120;2022-10-16T13:06:04;19.10;99.90
7972;DHT22;4031;49.758;6.120;2022-10-16T13:14:41;19.10;99.90
7972;DHT22;4031;49.758;6.120;2022-10-16T13:23:15;19.40;99.90
7972;DHT22;4031;49.758;6.120;2022-10-16T13:29:01;19.50;99.90
7972;DHT22;4031;49.758;6.120;2022-10-16T13:31:28;19.50;99.90
7972;DHT22;4031;49.758;6.120;2022-10-16T13:33:57;19.50;99.90
7972;DHT22;4031;49.758;6.120;2022-10-16T13:36:42;19.40;99.90
7972;DHT22;4031;49.758;6.120;2022-10-16T13:39:26;19.30;99.90
7972;DHT22;4031;49.758;6.120;2022-10-16T13:44:53;18.80;99.90
7972;DHT22;4031;49.758;6.120;2022-10-16T13:47:28;18.60;99.90
7972;DHT22;4031;49.758;6.120;2022-10-16T13:50:06;18.60;99.90
7972;DHT22;4031;49.758;6.120;2022-10-16T13:52:36;18.60;99.90
7972;DHT22;4031;49.758;6.120;2022-10-16T13:55:04;18.60;99.90
7972;DHT22;4031;49.758;6.120;2022-10-16T13:57:35;18.70;99.90
7972;DHT22;4031;49.758;6.120;2022-10-16T14:00:01;18.70;99.90
7972;DHT22;4031;49.758;6.120;2022-10-16T14:02:38;18.70;99.90
7972;DHT22;4031;49.758;6.120;2022-10-16T14:05:08;18.70;99.90
7972;DHT22;4031;49.758;6.120;2022-10-16T14:07:36;18.80;99.90
7972;DHT22;4031;49.758;6.120;2022-10-16T14:10:05;18.70;99.90
7972;DHT22;4031;49.758;6.120;2022-10-16T14:12:34;18.80;99.90
7972;DHT22;4031;49.758;6.120;2022-10-16T14:15:00;18.80;99.90
7972;DHT22;4031;49.758;6.120;2022-10-16T14:17:31;18.90;99.90
7972;DHT22;4031;49.758;6.120;2022-10-16T14:20:03;18.80;99.90
7972;DHT22;4031;49.758;6.120;2022-10-16T14:24:58;18.70;99.90
7972;DHT22;4031;49.758;6.120;2022-10-16T14:30:18;18.60;99.90
7972;DHT22;4031;49.758;6.120;2022-10-16T14:33:00;18.50;99.90
7972;DHT22;4031;49.758;6.120;2022-10-16T14:35:33;18.40;99.90
7972;DHT22;4031;49.758;6.120;2022-10-16T14:38:02;18.30;99.90
7972;DHT22;4031;49.758;6.120;2022-10-16T14:40:32;18.20;99.90
7972;DHT22;4031;49.758;6.120;2022-10-16T14:43:00;18.10;99.90
7972;DHT22;4031;49.758;6.120;2022-10-16T14:45:29;18.00;99.90
7972;DHT22;4031;49.758;6.120;2022-10-16T14:48:03;17.90;99.90
7972;DHT22;4031;49.758;6.120;2022-10-16T14:50:31;17.90;99.90
7972;DHT22;4031;49.758;6.120;2022-10-16T14:52:58;17.90;99.90
7972;DHT22;4031;49.758;6.120;2022-10-16T14:55:24;17.90;99.90
7972;DHT22;4031;49.758;6.120;2022-10-16T14:57:51;17.90;99.90
7972;DHT22;4031;49.758;6.120;2022-10-16T15:00:20;17.90;99.90
7972;DHT22;4031;49.758;6.120;2022-10-16T15:02:48;17.90;99.90
7972;DHT22;4031;49.758;6.120;2022-10-16T15:07:44;18.20;99.90
7972;DHT22;4031;49.758;6.120;2022-10-16T15:10:11;18.30;99.90
7972;DHT22;4031;49.758;6.120;2022-10-16T15:12:41;18.40;99.90
7972;DHT22;4031;49.758;6.120;2022-10-16T15:15:25;18.40;99.90
7972;DHT22;4031;49.758;6.120;2022-10-16T15:17:56;18.30;99.90
7972;DHT22;4031;49.758;6.120;2022-10-16T15:20:33;18.20;99.90
7972;DHT22;4031;49.758;6.120;2022-10-16T15:23:05;18.00;99.90
7972;DHT22;4031;49.758;6.120;2022-10-16T15:25:39;17.90;99.90
7972;DHT22;4031;49.758;6.120;2022-10-16T15:28:08;17.90;99.90
7972;DHT22;4031;49.758;6.120;2022-10-16T15:30:36;17.80;99.90
7972;DHT22;4031;49.758;6.120;2022-10-16T15:33:03;17.80;99.90
7972;DHT22;4031;49.758;6.120;2022-10-16T15:35:29;17.70;99.90
7972;DHT22;4031;49.758;6.120;2022-10-16T15:37:56;17.60;99.90
7972;DHT22;4031;49.758;6.120;2022-10-16T15:40:22;17.50;99.90
7972;DHT22;4031;49.758;6.120;2022-10-16T15:42:48;17.40;99.90
7972;DHT22;4031;49.758;6.120;2022-10-16T15:45:15;17.40;99.90
7972;DHT22;4031;49.758;6.120;2022-10-16T15:47:41;17.20;99.90
7972;DHT22;4031;49.758;6.120;2022-10-16T15:50:10;17.20;99.90
7972;DHT22;4031;49.758;6.120;2022-10-16T15:52:37;17.20;99.90
7972;DHT22;4031;49.758;6.120;2022-10-16T15:55:08;17.20;99.90
7972;DHT22;4031;49.758;6.120;2022-10-16T15:57:35;17.10;99.90
7972;DHT22;4031;49.758;6.120;2022-10-16T16:00:05;17.10;99.90
7972;DHT22;4031;49.758;6.120;2022-10-16T16:02:33;17.10;99.90
7972;DHT22;4031;49.758;6.120;2022-10-16T16:04:58;17.00;99.90
7972;DHT22;4031;49.758;6.120;2022-10-16T16:07:24;17.10;99.90
7972;DHT22;4031;49.758;6.120;2022-10-16T16:09:50;17.00;99.90
7972;DHT22;4031;49.758;6.120;2022-10-16T16:12:15;16.90;99.90
7972;DHT22;4031;49.758;6.120;2022-10-16T16:14:41;16.80;99.90
7972;DHT22;4031;49.758;6.120;2022-10-16T16:17:08;16.60;99.90
7972;DHT22;4031;49.758;6.120;2022-10-16T16:19:33;16.40;99.90
7972;DHT22;4031;49.758;6.120;2022-10-16T16:22:00;16.20;99.90
7972;DHT22;4031;49.758;6.120;2022-10-16T16:24:26;16.00;99.90
7972;DHT22;4031;49.758;6.120;2022-10-16T16:26:52;15.90;99.90
7972;DHT22;4031;49.758;6.120;2022-10-16T16:29:17;15.80;99.90
7972;DHT22;4031;49.758;6.120;2022-10-16T16:31:43;15.70;99.90
7972;DHT22;4031;49.758;6.120;2022-10-16T16:34:09;15.50;99.90
7972;DHT22;4031;49.758;6.120;2022-10-16T16:36:36;15.60;99.90
7972;DHT22;4031;49.758;6.120;2022-10-16T16:39:02;15.60;99.90
7972;DHT22;4031;49.758;6.120;2022-10-16T16:41:29;15.60;99.90
7972;DHT22;4031;49.758;6.120;2022-10-16T16:43:55;15.50;99.90
7972;DHT22;4031;49.758;6.120;2022-10-16T16:46:27;15.40;99.90
7972;DHT22;4031;49.758;6.120;2022-10-16T16:48:52;15.30;99.90
7972;DHT22;4031;49.758;6.120;2022-10-16T16:51:21;15.10;99.90
7972;DHT22;4031;49.758;6.120;2022-10-16T16:53:49;14.90;99.90
7972;DHT22;4031;49.758;6.120;2022-10-16T16:56:17;14.80;99.90
7972;DHT22;4031;49.758;6.120;2022-10-16T16:58:47;14.70;99.90
7972;DHT22;4031;49.758;6.120;2022-10-16T17:01:13;14.60;99.90
7972;DHT22;4031;49.758;6.120;2022-10-16T17:03:42;14.50;99.90
7972;DHT22;4031;49.758;6.120;2022-10-16T17:06:12;14.40;99.90
7972;DHT22;4031;49.758;6.120;2022-10-16T17:08:40;14.30;99.90
7972;DHT22;4031;49.758;6.120;2022-10-16T17:11:10;14.20;99.90
7972;DHT22;4031;49.758;6.120;2022-10-16T17:13:41;14.30;99.90
7972;DHT22;4031;49.758;6.120;2022-10-16T17:16:07;14.20;99.90
7972;DHT22;4031;49.758;6.120;2022-10-16T17:18:34;14.20;99.90
7972;DHT22;4031;49.758;6.120;2022-10-16T17:21:02;14.20;99.90
7972;DHT22;4031;49.758;6.120;2022-10-16T17:23:30;14.20;99.90
7972;DHT22;4031;49.758;6.120;2022-10-16T17:25:56;14.20;99.90
7972;DHT22;4031;49.758;6.120;2022-10-16T17:28:22;14.20;99.90
7972;DHT22;4031;49.758;6.120;2022-10-16T17:30:48;14.20;99.90
7972;DHT22;4031;49.758;6.120;2022-10-16T17:33:14;14.10;99.90
7972;DHT22;4031;49.758;6.120;2022-10-16T17:35:42;14.10;99.90
7972;DHT22;4031;49.758;6.120;2022-10-16T17:38:10;14.00;99.90
7972;DHT22;4031;49.758;6.120;2022-10-16T17:40:37;14.00;99.90
7972;DHT22;4031;49.758;6.120;2022-10-16T17:43:03;13.90;99.90
7972;DHT22;4031;49.758;6.120;2022-10-16T17:45:29;14.10;99.90
7972;DHT22;4031;49.758;6.120;2022-10-16T17:47:57;14.20;99.90
7972;DHT22;4031;49.758;6.120;2022-10-16T17:50:23;14.20;99.90
7972;DHT22;4031;49.758;6.120;2022-10-16T17:52:48;14.20;99.90
7972;DHT22;4031;49.758;6.120;2022-10-16T17:55:14;14.10;99.90
7972;DHT22;4031;49.758;6.120;2022-10-16T17:57:40;14.20;99.90
7972;DHT22;4031;49.758;6.120;2022-10-16T18:00:06;14.20;99.90
7972;DHT22;4031;49.758;6.120;2022-10-16T18:02:32;14.20;99.90
7972;DHT22;4031;49.758;6.120;2022-10-16T18:04:58;14.20;99.90
7972;DHT22;4031;49.758;6.120;2022-10-16T18:07:25;14.10;99.90
7972;DHT22;4031;49.758;6.120;2022-10-16T18:09:51;14.10;99.90
7972;DHT22;4031;49.758;6.120;2022-10-16T18:12:17;14.00;99.90
7972;DHT22;4031;49.758;6.120;2022-10-16T18:14:43;13.90;99.90
7972;DHT22;4031;49.758;6.120;2022-10-16T18:17:08;13.80;99.90
7972;DHT22;4031;49.758;6.120;2022-10-16T18:19:34;13.80;99.90
7972;DHT22;4031;49.758;6.120;2022-10-16T18:22:00;13.70;99.90
7972;DHT22;4031;49.758;6.120;2022-10-16T18:24:26;13.80;99.90
7972;DHT22;4031;49.758;6.120;2022-10-16T18:26:54;13.80;99.90
7972;DHT22;4031;49.758;6.120;2022-10-16T18:29:25;13.70;99.90
7972;DHT22;4031;49.758;6.120;2022-10-16T18:31:52;13.80;99.90
7972;DHT22;4031;49.758;6.120;2022-10-16T18:34:19;13.90;99.90
7972;DHT22;4031;49.758;6.120;2022-10-16T18:36:44;13.80;99.90